sensor_id;sensor_type;location;lat;lon;timestamp;P1;durP1;ratioP1;P2;durP2;ratioP2
68432;SDS011;55412;51.350;17.056;2023-12-20T00:01:50;8.23;;;2.67;;
68432;SDS011;55412;51.350;17.056;2023-12-20T00:04:15;6.43;;;2.17;;
68432;SDS011;55412;51.350;17.056;2023-12-20T00:06:41;7.40;;;2.20;;
68432;SDS011;55412;51.350;17.056;2023-12-20T00:09:07;7.33;;;2.53;;
68432;SDS011;55412;51.350;17.056;2023-12-20T00:11:32;8.20;;;2.67;;
68432;SDS011;55412;51.350;17.056;2023-12-20T00:13:58;6.50;;;2.50;;
68432;SDS011;55412;51.350;17.056;2023-12-20T00:16:24;5.30;;;2.20;;
68432;SDS011;55412;51.350;17.056;2023-12-20T00:18:50;6.68;;;2.38;;
68432;SDS011;55412;51.350;17.056;2023-12-20T00:21:15;4.88;;;2.00;;
68432;SDS011;55412;51.350;17.056;2023-12-20T00:23:41;5.87;;;2.07;;
68432;SDS011;55412;51.350;17.056;2023-12-20T00:26:07;5.88;;;2.13;;
68432;SDS011;55412;51.350;17.056;2023-12-20T00:28:33;5.43;;;1.60;;
68432;SDS011;55412;51.350;17.056;2023-12-20T00:30:58;4.67;;;1.53;;
68432;SDS011;55412;51.350;17.056;2023-12-20T00:33:24;5.68;;;1.50;;
68432;SDS011;55412;51.350;17.056;2023-12-20T00:35:50;7.00;;;2.23;;
68432;SDS011;55412;51.350;17.056;2023-12-20T00:38:15;4.72;;;1.33;;
68432;SDS011;55412;51.350;17.056;2023-12-20T00:40:41;4.93;;;1.40;;
68432;SDS011;55412;51.350;17.056;2023-12-20T00:43:07;2.50;;;0.52;;
68432;SDS011;55412;51.350;17.056;2023-12-20T00:45:32;4.70;;;1.67;;
68432;SDS011;55412;51.350;17.056;2023-12-20T00:47:58;4.18;;;1.38;;
68432;SDS011;55412;51.350;17.056;2023-12-20T00:50:24;4.90;;;1.63;;
68432;SDS011;55412;51.350;17.056;2023-12-20T00:52:50;4.40;;;1.37;;
68432;SDS011;55412;51.350;17.056;2023-12-20T00:55:15;4.30;;;1.17;;
68432;SDS011;55412;51.350;17.056;2023-12-20T00:57:42;5.50;;;1.40;;
68432;SDS011;55412;51.350;17.056;2023-12-20T01:00:08;5.57;;;1.65;;
68432;SDS011;55412;51.350;17.056;2023-12-20T01:02:38;4.35;;;1.35;;
68432;SDS011;55412;51.350;17.056;2023-12-20T01:05:05;4.43;;;1.50;;
68432;SDS011;55412;51.350;17.056;2023-12-20T01:07:32;4.95;;;1.50;;
68432;SDS011;55412;51.350;17.056;2023-12-20T01:09:58;4.10;;;1.17;;
68432;SDS011;55412;51.350;17.056;2023-12-20T01:12:24;4.23;;;1.50;;
68432;SDS011;55412;51.350;17.056;2023-12-20T01:14:49;4.35;;;1.10;;
68432;SDS011;55412;51.350;17.056;2023-12-20T01:17:15;3.07;;;0.60;;
68432;SDS011;55412;51.350;17.056;2023-12-20T01:19:41;5.07;;;1.38;;
68432;SDS011;55412;51.350;17.056;2023-12-20T01:22:09;4.25;;;1.30;;
68432;SDS011;55412;51.350;17.056;2023-12-20T01:24:35;5.80;;;1.23;;
68432;SDS011;55412;51.350;17.056;2023-12-20T01:27:01;5.15;;;1.67;;
68432;SDS011;55412;51.350;17.056;2023-12-20T01:29:27;5.30;;;1.87;;
68432;SDS011;55412;51.350;17.056;2023-12-20T01:31:53;3.30;;;0.80;;
68432;SDS011;55412;51.350;17.056;2023-12-20T01:34:18;2.37;;;0.63;;
68432;SDS011;55412;51.350;17.056;2023-12-20T01:36:44;2.92;;;0.65;;
68432;SDS011;55412;51.350;17.056;2023-12-20T01:39:09;4.30;;;0.80;;
68432;SDS011;55412;51.350;17.056;2023-12-20T01:41:35;3.78;;;0.60;;
68432;SDS011;55412;51.350;17.056;2023-12-20T01:44:01;4.00;;;1.20;;
68432;SDS011;55412;51.350;17.056;2023-12-20T01:46:28;3.42;;;0.95;;
68432;SDS011;55412;51.350;17.056;2023-12-20T01:48:53;4.80;;;1.30;;
68432;SDS011;55412;51.350;17.056;2023-12-20T01:51:19;4.67;;;1.17;;
68432;SDS011;55412;51.350;17.056;2023-12-20T01:53:46;3.45;;;0.82;;
68432;SDS011;55412;51.350;17.056;2023-12-20T01:56:12;4.25;;;1.00;;
68432;SDS011;55412;51.350;17.056;2023-12-20T01:58:39;5.60;;;1.17;;
68432;SDS011;55412;51.350;17.056;2023-12-20T02:01:12;5.28;;;1.17;;
68432;SDS011;55412;51.350;17.056;2023-12-20T02:03:39;5.05;;;1.60;;
68432;SDS011;55412;51.350;17.056;2023-12-20T02:06:09;6.18;;;1.17;;
68432;SDS011;55412;51.350;17.056;2023-12-20T02:08:35;3.50;;;0.98;;
68432;SDS011;55412;51.350;17.056;2023-12-20T02:11:01;5.93;;;1.00;;
68432;SDS011;55412;51.350;17.056;2023-12-20T02:13:27;4.15;;;0.60;;
68432;SDS011;55412;51.350;17.056;2023-12-20T02:15:54;3.13;;;0.70;;
68432;SDS011;55412;51.350;17.056;2023-12-20T02:18:20;4.93;;;1.10;;
68432;SDS011;55412;51.350;17.056;2023-12-20T02:20:46;3.53;;;0.80;;
68432;SDS011;55412;51.350;17.056;2023-12-20T02:23:12;2.88;;;0.70;;
68432;SDS011;55412;51.350;17.056;2023-12-20T02:25:37;2.97;;;0.80;;
68432;SDS011;55412;51.350;17.056;2023-12-20T02:28:03;3.55;;;0.88;;
68432;SDS011;55412;51.350;17.056;2023-12-20T02:30:30;3.83;;;0.77;;
68432;SDS011;55412;51.350;17.056;2023-12-20T02:32:55;3.05;;;0.70;;
68432;SDS011;55412;51.350;17.056;2023-12-20T02:35:21;3.13;;;0.55;;
68432;SDS011;55412;51.350;17.056;2023-12-20T02:37:47;3.43;;;0.53;;
68432;SDS011;55412;51.350;17.056;2023-12-20T02:40:13;3.15;;;0.70;;
68432;SDS011;55412;51.350;17.056;2023-12-20T02:42:38;3.70;;;0.57;;
68432;SDS011;55412;51.350;17.056;2023-12-20T02:45:04;3.50;;;0.70;;
68432;SDS011;55412;51.350;17.056;2023-12-20T02:47:30;4.13;;;1.00;;
68432;SDS011;55412;51.350;17.056;2023-12-20T02:49:56;3.42;;;0.68;;
68432;SDS011;55412;51.350;17.056;2023-12-20T02:52:23;3.28;;;0.70;;
68432;SDS011;55412;51.350;17.056;2023-12-20T02:54:49;3.40;;;0.73;;
68432;SDS011;55412;51.350;17.056;2023-12-20T02:57:15;3.80;;;0.85;;
68432;SDS011;55412;51.350;17.056;2023-12-20T02:59:41;2.37;;;0.40;;
68432;SDS011;55412;51.350;17.056;2023-12-20T03:02:06;2.60;;;0.60;;
68432;SDS011;55412;51.350;17.056;2023-12-20T03:04:32;3.40;;;0.40;;
68432;SDS011;55412;51.350;17.056;2023-12-20T03:06:58;2.13;;;0.33;;
68432;SDS011;55412;51.350;17.056;2023-12-20T03:09:24;2.78;;;0.75;;
68432;SDS011;55412;51.350;17.056;2023-12-20T03:11:49;5.37;;;0.60;;
68432;SDS011;55412;51.350;17.056;2023-12-20T03:14:15;2.60;;;0.52;;
68432;SDS011;55412;51.350;17.056;2023-12-20T03:16:41;3.83;;;0.60;;
68432;SDS011;55412;51.350;17.056;2023-12-20T03:19:06;2.15;;;0.40;;
68432;SDS011;55412;51.350;17.056;2023-12-20T03:21:32;2.60;;;0.60;;
68432;SDS011;55412;51.350;17.056;2023-12-20T03:23:58;3.93;;;0.40;;
68432;SDS011;55412;51.350;17.056;2023-12-20T03:26:23;2.30;;;0.43;;
68432;SDS011;55412;51.350;17.056;2023-12-20T03:28:49;4.87;;;0.60;;
68432;SDS011;55412;51.350;17.056;2023-12-20T03:31:15;3.17;;;0.67;;
68432;SDS011;55412;51.350;17.056;2023-12-20T03:33:40;2.90;;;0.40;;
68432;SDS011;55412;51.350;17.056;2023-12-20T03:36:06;2.60;;;0.30;;
68432;SDS011;55412;51.350;17.056;2023-12-20T03:38:32;2.72;;;0.30;;
68432;SDS011;55412;51.350;17.056;2023-12-20T03:40:58;2.93;;;0.40;;
68432;SDS011;55412;51.350;17.056;2023-12-20T03:43:23;3.25;;;0.47;;
68432;SDS011;55412;51.350;17.056;2023-12-20T03:45:49;2.20;;;0.40;;
68432;SDS011;55412;51.350;17.056;2023-12-20T03:48:15;2.25;;;0.38;;
68432;SDS011;55412;51.350;17.056;2023-12-20T03:50:41;1.90;;;0.20;;
68432;SDS011;55412;51.350;17.056;2023-12-20T03:53:06;2.17;;;0.30;;
68432;SDS011;55412;51.350;17.056;2023-12-20T03:55:33;2.10;;;0.38;;
68432;SDS011;55412;51.350;17.056;2023-12-20T03:57:58;2.00;;;0.10;;
68432;SDS011;55412;51.350;17.056;2023-12-20T04:00:24;2.17;;;0.28;;
68432;SDS011;55412;51.350;17.056;2023-12-20T04:02:50;3.43;;;0.30;;
68432;SDS011;55412;51.350;17.056;2023-12-20T04:05:15;2.88;;;0.60;;
68432;SDS011;55412;51.350;17.056;2023-12-20T04:07:41;2.17;;;0.30;;
68432;SDS011;55412;51.350;17.056;2023-12-20T04:10:07;1.90;;;0.20;;
68432;SDS011;55412;51.350;17.056;2023-12-20T04:12:33;2.07;;;0.30;;
68432;SDS011;55412;51.350;17.056;2023-12-20T04:14:59;1.95;;;0.20;;
68432;SDS011;55412;51.350;17.056;2023-12-20T04:17:25;1.93;;;0.20;;
68432;SDS011;55412;51.350;17.056;2023-12-20T04:19:51;1.95;;;0.32;;
68432;SDS011;55412;51.350;17.056;2023-12-20T04:22:17;2.53;;;0.30;;
68432;SDS011;55412;51.350;17.056;2023-12-20T04:24:44;3.05;;;0.40;;
68432;SDS011;55412;51.350;17.056;2023-12-20T04:27:10;2.13;;;0.30;;
68432;SDS011;55412;51.350;17.056;2023-12-20T04:29:36;1.92;;;0.30;;
68432;SDS011;55412;51.350;17.056;2023-12-20T04:32:01;4.23;;;0.40;;
68432;SDS011;55412;51.350;17.056;2023-12-20T04:34:27;1.98;;;0.28;;
68432;SDS011;55412;51.350;17.056;2023-12-20T04:36:53;1.83;;;0.23;;
68432;SDS011;55412;51.350;17.056;2023-12-20T04:39:19;2.38;;;0.32;;
68432;SDS011;55412;51.350;17.056;2023-12-20T04:41:45;2.50;;;0.35;;
68432;SDS011;55412;51.350;17.056;2023-12-20T04:44:13;2.10;;;0.30;;
68432;SDS011;55412;51.350;17.056;2023-12-20T04:46:39;2.28;;;0.32;;
68432;SDS011;55412;51.350;17.056;2023-12-20T04:49:05;2.10;;;0.43;;
68432;SDS011;55412;51.350;17.056;2023-12-20T04:51:33;2.97;;;0.50;;
68432;SDS011;55412;51.350;17.056;2023-12-20T04:53:59;2.50;;;0.40;;
68432;SDS011;55412;51.350;17.056;2023-12-20T04:56:25;2.38;;;0.25;;
68432;SDS011;55412;51.350;17.056;2023-12-20T04:58:50;1.90;;;0.27;;
68432;SDS011;55412;51.350;17.056;2023-12-20T05:01:16;2.10;;;0.38;;
68432;SDS011;55412;51.350;17.056;2023-12-20T05:03:42;3.03;;;0.50;;
68432;SDS011;55412;51.350;17.056;2023-12-20T05:06:07;2.78;;;0.30;;
68432;SDS011;55412;51.350;17.056;2023-12-20T05:08:34;1.65;;;0.35;;
68432;SDS011;55412;51.350;17.056;2023-12-20T05:11:00;2.30;;;0.23;;
68432;SDS011;55412;51.350;17.056;2023-12-20T05:13:26;2.45;;;0.43;;
68432;SDS011;55412;51.350;17.056;2023-12-20T05:15:51;1.87;;;0.23;;
68432;SDS011;55412;51.350;17.056;2023-12-20T05:18:17;2.00;;;0.20;;
68432;SDS011;55412;51.350;17.056;2023-12-20T05:20:43;2.13;;;0.30;;
68432;SDS011;55412;51.350;17.056;2023-12-20T05:23:09;2.38;;;0.50;;
68432;SDS011;55412;51.350;17.056;2023-12-20T05:25:34;3.10;;;0.30;;
68432;SDS011;55412;51.350;17.056;2023-12-20T05:28:00;3.28;;;0.40;;
68432;SDS011;55412;51.350;17.056;2023-12-20T05:30:26;2.97;;;0.60;;
68432;SDS011;55412;51.350;17.056;2023-12-20T05:32:51;2.17;;;0.43;;
68432;SDS011;55412;51.350;17.056;2023-12-20T05:35:17;2.57;;;0.50;;
68432;SDS011;55412;51.350;17.056;2023-12-20T05:37:44;3.35;;;0.70;;
68432;SDS011;55412;51.350;17.056;2023-12-20T05:40:10;3.63;;;0.40;;
68432;SDS011;55412;51.350;17.056;2023-12-20T05:42:36;2.43;;;0.30;;
68432;SDS011;55412;51.350;17.056;2023-12-20T05:45:04;3.45;;;0.70;;
68432;SDS011;55412;51.350;17.056;2023-12-20T05:47:31;2.90;;;0.50;;
68432;SDS011;55412;51.350;17.056;2023-12-20T05:49:56;2.37;;;0.30;;
68432;SDS011;55412;51.350;17.056;2023-12-20T05:52:22;2.80;;;0.60;;
68432;SDS011;55412;51.350;17.056;2023-12-20T05:54:48;2.00;;;0.20;;
68432;SDS011;55412;51.350;17.056;2023-12-20T05:57:14;3.47;;;0.40;;
68432;SDS011;55412;51.350;17.056;2023-12-20T05:59:39;2.33;;;0.40;;
68432;SDS011;55412;51.350;17.056;2023-12-20T06:02:05;2.60;;;0.50;;
68432;SDS011;55412;51.350;17.056;2023-12-20T06:04:31;2.72;;;0.60;;
68432;SDS011;55412;51.350;17.056;2023-12-20T06:06:57;2.30;;;0.50;;
68432;SDS011;55412;51.350;17.056;2023-12-20T06:09:24;2.55;;;0.38;;
68432;SDS011;55412;51.350;17.056;2023-12-20T06:11:51;2.47;;;0.60;;
68432;SDS011;55412;51.350;17.056;2023-12-20T06:14:17;4.13;;;0.70;;
68432;SDS011;55412;51.350;17.056;2023-12-20T06:16:43;2.77;;;0.60;;
68432;SDS011;55412;51.350;17.056;2023-12-20T06:19:10;3.00;;;0.65;;
68432;SDS011;55412;51.350;17.056;2023-12-20T06:21:35;3.08;;;0.50;;
68432;SDS011;55412;51.350;17.056;2023-12-20T06:24:01;3.10;;;0.77;;
68432;SDS011;55412;51.350;17.056;2023-12-20T06:26:27;2.53;;;0.40;;
68432;SDS011;55412;51.350;17.056;2023-12-20T06:28:53;2.27;;;0.37;;
68432;SDS011;55412;51.350;17.056;2023-12-20T06:31:18;3.75;;;0.80;;
68432;SDS011;55412;51.350;17.056;2023-12-20T06:33:44;2.33;;;0.50;;
68432;SDS011;55412;51.350;17.056;2023-12-20T06:36:13;2.15;;;0.40;;
68432;SDS011;55412;51.350;17.056;2023-12-20T06:38:39;3.53;;;0.67;;
68432;SDS011;55412;51.350;17.056;2023-12-20T06:41:05;2.88;;;0.70;;
68432;SDS011;55412;51.350;17.056;2023-12-20T06:43:31;3.22;;;0.60;;
68432;SDS011;55412;51.350;17.056;2023-12-20T06:46:00;1.77;;;0.20;;
68432;SDS011;55412;51.350;17.056;2023-12-20T06:48:25;1.88;;;0.50;;
68432;SDS011;55412;51.350;17.056;2023-12-20T06:50:51;2.85;;;0.30;;
68432;SDS011;55412;51.350;17.056;2023-12-20T06:53:17;2.53;;;0.52;;
68432;SDS011;55412;51.350;17.056;2023-12-20T06:55:43;2.47;;;0.50;;
68432;SDS011;55412;51.350;17.056;2023-12-20T06:58:09;3.13;;;0.60;;
68432;SDS011;55412;51.350;17.056;2023-12-20T07:00:34;2.30;;;0.47;;
68432;SDS011;55412;51.350;17.056;2023-12-20T07:03:00;1.83;;;0.32;;
68432;SDS011;55412;51.350;17.056;2023-12-20T07:05:26;2.87;;;0.70;;
68432;SDS011;55412;51.350;17.056;2023-12-20T07:07:52;2.38;;;0.30;;
68432;SDS011;55412;51.350;17.056;2023-12-20T07:10:18;3.35;;;0.68;;
68432;SDS011;55412;51.350;17.056;2023-12-20T07:12:44;2.37;;;0.60;;
68432;SDS011;55412;51.350;17.056;2023-12-20T07:15:10;4.03;;;0.60;;
68432;SDS011;55412;51.350;17.056;2023-12-20T07:17:36;2.38;;;0.50;;
68432;SDS011;55412;51.350;17.056;2023-12-20T07:20:02;3.20;;;0.60;;
68432;SDS011;55412;51.350;17.056;2023-12-20T07:22:32;2.70;;;0.70;;
68432;SDS011;55412;51.350;17.056;2023-12-20T07:24:59;2.95;;;0.65;;
68432;SDS011;55412;51.350;17.056;2023-12-20T07:27:26;4.07;;;0.88;;
68432;SDS011;55412;51.350;17.056;2023-12-20T07:29:52;2.17;;;0.38;;
68432;SDS011;55412;51.350;17.056;2023-12-20T07:32:18;2.05;;;0.30;;
68432;SDS011;55412;51.350;17.056;2023-12-20T07:34:44;2.17;;;0.50;;
68432;SDS011;55412;51.350;17.056;2023-12-20T07:37:10;2.85;;;0.30;;
68432;SDS011;55412;51.350;17.056;2023-12-20T07:39:40;3.70;;;0.60;;
68432;SDS011;55412;51.350;17.056;2023-12-20T07:42:06;2.35;;;0.40;;
68432;SDS011;55412;51.350;17.056;2023-12-20T07:44:32;3.70;;;0.57;;
68432;SDS011;55412;51.350;17.056;2023-12-20T07:46:59;2.80;;;0.30;;
68432;SDS011;55412;51.350;17.056;2023-12-20T07:49:26;2.55;;;0.32;;
68432;SDS011;55412;51.350;17.056;2023-12-20T07:51:52;2.10;;;0.20;;
68432;SDS011;55412;51.350;17.056;2023-12-20T07:54:17;2.10;;;0.33;;
68432;SDS011;55412;51.350;17.056;2023-12-20T07:56:43;1.95;;;0.20;;
68432;SDS011;55412;51.350;17.056;2023-12-20T07:59:09;2.53;;;0.60;;
68432;SDS011;55412;51.350;17.056;2023-12-20T08:01:34;2.83;;;0.30;;
68432;SDS011;55412;51.350;17.056;2023-12-20T08:04:01;1.77;;;0.20;;
68432;SDS011;55412;51.350;17.056;2023-12-20T08:06:27;2.10;;;0.30;;
68432;SDS011;55412;51.350;17.056;2023-12-20T08:08:52;2.65;;;0.47;;
68432;SDS011;55412;51.350;17.056;2023-12-20T08:11:18;2.40;;;0.40;;
68432;SDS011;55412;51.350;17.056;2023-12-20T08:13:44;3.65;;;0.50;;
68432;SDS011;55412;51.350;17.056;2023-12-20T08:16:10;2.33;;;0.40;;
68432;SDS011;55412;51.350;17.056;2023-12-20T08:18:38;2.07;;;0.30;;
68432;SDS011;55412;51.350;17.056;2023-12-20T08:21:04;2.25;;;0.40;;
68432;SDS011;55412;51.350;17.056;2023-12-20T08:23:33;3.20;;;0.50;;
68432;SDS011;55412;51.350;17.056;2023-12-20T08:26:03;2.30;;;0.30;;
68432;SDS011;55412;51.350;17.056;2023-12-20T08:28:32;2.53;;;0.40;;
68432;SDS011;55412;51.350;17.056;2023-12-20T08:30:58;2.80;;;0.40;;
68432;SDS011;55412;51.350;17.056;2023-12-20T08:33:23;1.48;;;0.20;;
68432;SDS011;55412;51.350;17.056;2023-12-20T08:35:49;2.00;;;0.30;;
68432;SDS011;55412;51.350;17.056;2023-12-20T08:38:15;1.50;;;0.20;;
68432;SDS011;55412;51.350;17.056;2023-12-20T08:40:41;2.80;;;0.63;;
68432;SDS011;55412;51.350;17.056;2023-12-20T08:43:07;2.73;;;0.30;;
68432;SDS011;55412;51.350;17.056;2023-12-20T08:45:33;2.67;;;0.35;;
68432;SDS011;55412;51.350;17.056;2023-12-20T08:47:59;2.17;;;0.30;;
68432;SDS011;55412;51.350;17.056;2023-12-20T08:50:25;1.58;;;0.17;;
68432;SDS011;55412;51.350;17.056;2023-12-20T08:52:50;2.15;;;0.35;;
68432;SDS011;55412;51.350;17.056;2023-12-20T08:55:16;1.23;;;0.10;;
68432;SDS011;55412;51.350;17.056;2023-12-20T08:57:43;1.10;;;0.17;;
68432;SDS011;55412;51.350;17.056;2023-12-20T09:00:09;1.88;;;0.10;;
68432;SDS011;55412;51.350;17.056;2023-12-20T09:02:35;1.95;;;0.28;;
68432;SDS011;55412;51.350;17.056;2023-12-20T09:05:01;2.73;;;0.50;;
68432;SDS011;55412;51.350;17.056;2023-12-20T09:07:27;1.33;;;0.10;;
68432;SDS011;55412;51.350;17.056;2023-12-20T09:09:55;1.20;;;0.10;;
68432;SDS011;55412;51.350;17.056;2023-12-20T09:12:21;2.43;;;0.40;;
68432;SDS011;55412;51.350;17.056;2023-12-20T09:14:48;1.98;;;0.20;;
68432;SDS011;55412;51.350;17.056;2023-12-20T09:17:18;1.40;;;0.20;;
68432;SDS011;55412;51.350;17.056;2023-12-20T09:19:44;2.40;;;0.25;;
68432;SDS011;55412;51.350;17.056;2023-12-20T09:22:10;1.70;;;0.20;;
68432;SDS011;55412;51.350;17.056;2023-12-20T09:24:36;2.10;;;0.20;;
68432;SDS011;55412;51.350;17.056;2023-12-20T09:27:04;1.88;;;0.22;;
68432;SDS011;55412;51.350;17.056;2023-12-20T09:29:31;2.63;;;0.30;;
68432;SDS011;55412;51.350;17.056;2023-12-20T09:31:57;3.38;;;0.40;;
68432;SDS011;55412;51.350;17.056;2023-12-20T09:34:23;2.03;;;0.28;;
68432;SDS011;55412;51.350;17.056;2023-12-20T09:36:49;2.60;;;0.30;;
68432;SDS011;55412;51.350;17.056;2023-12-20T09:39:18;2.13;;;0.20;;
68432;SDS011;55412;51.350;17.056;2023-12-20T09:41:46;3.05;;;0.20;;
68432;SDS011;55412;51.350;17.056;2023-12-20T09:44:23;2.88;;;0.47;;
68432;SDS011;55412;51.350;17.056;2023-12-20T09:46:49;2.60;;;0.43;;
68432;SDS011;55412;51.350;17.056;2023-12-20T09:49:19;1.63;;;0.28;;
68432;SDS011;55412;51.350;17.056;2023-12-20T09:51:46;2.55;;;0.40;;
68432;SDS011;55412;51.350;17.056;2023-12-20T09:54:13;2.10;;;0.30;;
68432;SDS011;55412;51.350;17.056;2023-12-20T09:56:40;3.63;;;0.30;;
68432;SDS011;55412;51.350;17.056;2023-12-20T09:59:06;1.50;;;0.20;;
68432;SDS011;55412;51.350;17.056;2023-12-20T10:01:32;2.88;;;0.40;;
68432;SDS011;55412;51.350;17.056;2023-12-20T10:04:00;2.20;;;0.20;;
68432;SDS011;55412;51.350;17.056;2023-12-20T10:06:26;3.00;;;0.35;;
68432;SDS011;55412;51.350;17.056;2023-12-20T10:08:51;1.23;;;0.20;;
68432;SDS011;55412;51.350;17.056;2023-12-20T10:11:18;2.60;;;0.20;;
68432;SDS011;55412;51.350;17.056;2023-12-20T10:13:44;2.03;;;0.30;;
68432;SDS011;55412;51.350;17.056;2023-12-20T10:16:13;3.35;;;0.38;;
68432;SDS011;55412;51.350;17.056;2023-12-20T10:18:39;2.97;;;0.40;;
68432;SDS011;55412;51.350;17.056;2023-12-20T10:21:05;2.13;;;0.43;;
68432;SDS011;55412;51.350;17.056;2023-12-20T10:23:35;2.65;;;0.60;;
68432;SDS011;55412;51.350;17.056;2023-12-20T10:26:02;3.00;;;0.40;;
68432;SDS011;55412;51.350;17.056;2023-12-20T10:28:28;2.47;;;0.40;;
68432;SDS011;55412;51.350;17.056;2023-12-20T10:30:59;2.58;;;0.30;;
68432;SDS011;55412;51.350;17.056;2023-12-20T10:33:28;3.03;;;0.25;;
68432;SDS011;55412;51.350;17.056;2023-12-20T10:35:57;1.50;;;0.10;;
68432;SDS011;55412;51.350;17.056;2023-12-20T10:38:23;7.10;;;0.30;;
68432;SDS011;55412;51.350;17.056;2023-12-20T10:40:49;2.13;;;0.15;;
68432;SDS011;55412;51.350;17.056;2023-12-20T10:43:23;3.78;;;0.17;;
68432;SDS011;55412;51.350;17.056;2023-12-20T10:45:51;3.43;;;0.20;;
68432;SDS011;55412;51.350;17.056;2023-12-20T10:48:23;1.25;;;0.10;;
68432;SDS011;55412;51.350;17.056;2023-12-20T10:50:54;1.52;;;0.20;;
68432;SDS011;55412;51.350;17.056;2023-12-20T10:53:21;4.90;;;0.10;;
68432;SDS011;55412;51.350;17.056;2023-12-20T10:55:49;3.55;;;0.20;;
68432;SDS011;55412;51.350;17.056;2023-12-20T10:58:17;2.43;;;0.10;;
68432;SDS011;55412;51.350;17.056;2023-12-20T11:00:45;3.50;;;0.20;;
68432;SDS011;55412;51.350;17.056;2023-12-20T11:03:15;3.13;;;0.20;;
68432;SDS011;55412;51.350;17.056;2023-12-20T11:05:55;2.72;;;0.17;;
68432;SDS011;55412;51.350;17.056;2023-12-20T11:08:43;2.40;;;0.30;;
68432;SDS011;55412;51.350;17.056;2023-12-20T11:11:22;3.07;;;0.20;;
68432;SDS011;55412;51.350;17.056;2023-12-20T11:13:59;2.65;;;0.10;;
68432;SDS011;55412;51.350;17.056;2023-12-20T11:16:36;1.45;;;0.10;;
68432;SDS011;55412;51.350;17.056;2023-12-20T11:19:05;2.83;;;0.45;;
68432;SDS011;55412;51.350;17.056;2023-12-20T11:21:31;3.05;;;0.40;;
68432;SDS011;55412;51.350;17.056;2023-12-20T11:23:58;1.80;;;0.20;;
68432;SDS011;55412;51.350;17.056;2023-12-20T11:26:29;1.88;;;0.20;;
68432;SDS011;55412;51.350;17.056;2023-12-20T11:29:28;2.53;;;0.43;;
68432;SDS011;55412;51.350;17.056;2023-12-20T11:32:02;3.67;;;0.20;;
68432;SDS011;55412;51.350;17.056;2023-12-20T11:34:48;5.78;;;0.20;;
68432;SDS011;55412;51.350;17.056;2023-12-20T11:37:14;3.10;;;0.53;;
68432;SDS011;55412;51.350;17.056;2023-12-20T11:39:39;2.10;;;0.40;;
68432;SDS011;55412;51.350;17.056;2023-12-20T11:42:12;3.92;;;0.80;;
68432;SDS011;55412;51.350;17.056;2023-12-20T11:44:39;1.50;;;0.30;;
68432;SDS011;55412;51.350;17.056;2023-12-20T11:47:11;3.08;;;0.32;;
68432;SDS011;55412;51.350;17.056;2023-12-20T11:49:39;4.20;;;0.30;;
68432;SDS011;55412;51.350;17.056;2023-12-20T11:52:05;2.00;;;0.32;;
68432;SDS011;55412;51.350;17.056;2023-12-20T11:54:31;3.43;;;0.30;;
68432;SDS011;55412;51.350;17.056;2023-12-20T11:56:57;4.60;;;0.68;;
68432;SDS011;55412;51.350;17.056;2023-12-20T11:59:23;2.57;;;0.40;;
68432;SDS011;55412;51.350;17.056;2023-12-20T12:01:49;1.13;;;0.10;;
68432;SDS011;55412;51.350;17.056;2023-12-20T12:04:17;2.70;;;0.30;;
68432;SDS011;55412;51.350;17.056;2023-12-20T12:06:44;2.57;;;0.30;;
68432;SDS011;55412;51.350;17.056;2023-12-20T12:09:10;5.35;;;0.60;;
68432;SDS011;55412;51.350;17.056;2023-12-20T12:11:36;3.88;;;0.45;;
68432;SDS011;55412;51.350;17.056;2023-12-20T12:14:02;3.10;;;0.70;;
68432;SDS011;55412;51.350;17.056;2023-12-20T12:16:28;3.20;;;0.40;;
68432;SDS011;55412;51.350;17.056;2023-12-20T12:18:55;2.88;;;0.50;;
68432;SDS011;55412;51.350;17.056;2023-12-20T12:21:22;2.28;;;0.40;;
68432;SDS011;55412;51.350;17.056;2023-12-20T12:23:48;3.17;;;0.30;;
68432;SDS011;55412;51.350;17.056;2023-12-20T12:26:13;3.92;;;0.50;;
68432;SDS011;55412;51.350;17.056;2023-12-20T12:28:40;3.47;;;0.63;;
68432;SDS011;55412;51.350;17.056;2023-12-20T12:31:07;4.70;;;0.50;;
68432;SDS011;55412;51.350;17.056;2023-12-20T12:33:33;5.75;;;0.47;;
68432;SDS011;55412;51.350;17.056;2023-12-20T12:36:00;2.17;;;0.28;;
68432;SDS011;55412;51.350;17.056;2023-12-20T12:38:26;6.28;;;0.65;;
68432;SDS011;55412;51.350;17.056;2023-12-20T12:40:52;4.13;;;0.65;;
68432;SDS011;55412;51.350;17.056;2023-12-20T12:43:19;3.07;;;0.33;;
68432;SDS011;55412;51.350;17.056;2023-12-20T12:45:47;3.88;;;0.80;;
68432;SDS011;55412;51.350;17.056;2023-12-20T12:48:14;2.70;;;0.30;;
68432;SDS011;55412;51.350;17.056;2023-12-20T12:50:40;4.82;;;2.03;;
68432;SDS011;55412;51.350;17.056;2023-12-20T12:53:06;2.20;;;0.30;;
68432;SDS011;55412;51.350;17.056;2023-12-20T12:55:32;2.58;;;0.20;;
68432;SDS011;55412;51.350;17.056;2023-12-20T12:57:58;8.07;;;0.55;;
68432;SDS011;55412;51.350;17.056;2023-12-20T13:00:24;2.60;;;0.30;;
68432;SDS011;55412;51.350;17.056;2023-12-20T13:02:51;2.43;;;0.30;;
68432;SDS011;55412;51.350;17.056;2023-12-20T13:05:17;3.35;;;0.50;;
68432;SDS011;55412;51.350;17.056;2023-12-20T13:07:43;5.73;;;0.40;;
68432;SDS011;55412;51.350;17.056;2023-12-20T13:10:10;4.87;;;0.50;;
68432;SDS011;55412;51.350;17.056;2023-12-20T13:12:36;3.95;;;0.30;;
68432;SDS011;55412;51.350;17.056;2023-12-20T13:15:02;2.42;;;0.50;;
68432;SDS011;55412;51.350;17.056;2023-12-20T13:17:29;6.97;;;0.80;;
68432;SDS011;55412;51.350;17.056;2023-12-20T13:19:55;4.70;;;0.30;;
68432;SDS011;55412;51.350;17.056;2023-12-20T13:22:21;2.63;;;0.38;;
68432;SDS011;55412;51.350;17.056;2023-12-20T13:24:46;2.10;;;0.23;;
68432;SDS011;55412;51.350;17.056;2023-12-20T13:27:12;2.70;;;0.30;;
68432;SDS011;55412;51.350;17.056;2023-12-20T13:29:38;2.33;;;0.23;;
68432;SDS011;55412;51.350;17.056;2023-12-20T13:32:04;3.83;;;0.80;;
68432;SDS011;55412;51.350;17.056;2023-12-20T13:34:30;4.25;;;0.32;;
68432;SDS011;55412;51.350;17.056;2023-12-20T13:36:55;3.53;;;0.23;;
68432;SDS011;55412;51.350;17.056;2023-12-20T13:39:21;4.80;;;0.45;;
68432;SDS011;55412;51.350;17.056;2023-12-20T13:41:47;2.73;;;0.37;;
68432;SDS011;55412;51.350;17.056;2023-12-20T13:44:13;2.05;;;0.40;;
68432;SDS011;55412;51.350;17.056;2023-12-20T13:46:42;2.53;;;0.30;;
68432;SDS011;55412;51.350;17.056;2023-12-20T13:49:08;4.00;;;0.50;;
68432;SDS011;55412;51.350;17.056;2023-12-20T13:51:34;4.50;;;0.10;;
68432;SDS011;55412;51.350;17.056;2023-12-20T13:54:00;2.78;;;0.28;;
68432;SDS011;55412;51.350;17.056;2023-12-20T13:56:25;2.90;;;0.60;;
68432;SDS011;55412;51.350;17.056;2023-12-20T13:58:51;5.33;;;0.60;;
68432;SDS011;55412;51.350;17.056;2023-12-20T14:01:17;1.52;;;0.20;;
68432;SDS011;55412;51.350;17.056;2023-12-20T14:03:43;2.85;;;0.28;;
68432;SDS011;55412;51.350;17.056;2023-12-20T14:06:09;3.43;;;0.30;;
68432;SDS011;55412;51.350;17.056;2023-12-20T14:08:35;2.28;;;0.20;;
68432;SDS011;55412;51.350;17.056;2023-12-20T14:11:01;2.42;;;0.13;;
68432;SDS011;55412;51.350;17.056;2023-12-20T14:13:27;2.70;;;0.50;;
68432;SDS011;55412;51.350;17.056;2023-12-20T14:15:53;3.13;;;0.40;;
68432;SDS011;55412;51.350;17.056;2023-12-20T14:18:19;3.63;;;0.40;;
68432;SDS011;55412;51.350;17.056;2023-12-20T14:20:46;5.33;;;0.30;;
68432;SDS011;55412;51.350;17.056;2023-12-20T14:23:13;2.53;;;0.25;;
68432;SDS011;55412;51.350;17.056;2023-12-20T14:25:41;4.90;;;0.43;;
68432;SDS011;55412;51.350;17.056;2023-12-20T14:28:07;5.78;;;0.57;;
68432;SDS011;55412;51.350;17.056;2023-12-20T14:30:39;1.80;;;0.30;;